Time;durP1;ratioP1;P1;durP2;ratioP2;P2;SDS_P1;SDS_P2;PMS_P1;PMS_P2;Temp;Humidity;BMP_temperature;BMP_pressure;BME280_temperature;BME280_humidity;BME280_pressure;Samples;Min_cycle;Max_cycle;Signal;HPM_P1;HPM_P2
2022/08/28 00:01:00;;;;;;;;;;;;;;;24.14;74.21;96666.57;199378;293;188350;-59
2022/08/28 00:02:02;;;;;;;;;;;;;;;24.15;74.17;96664.02;199457;293;189050;-56
2022/08/28 00:03:03;;;;;;;;;;;;;;;24.19;74.14;96667.67;199365;293;188430;-58
2022/08/28 00:04:04;;;;;;;;;;;;;;;24.21;74.10;96664.53;199256;293;186674;-59
2022/08/28 00:05:06;;;;;;;;;;;;;;;24.23;74.04;96658.85;199214;293;189173;-57
2022/08/28 00:06:07;;;;;;;;;;;;;;;24.25;73.96;96665.44;198882;293;190439;-55
2022/08/28 00:07:10;;;;;;;;;;;;;;;24.26;73.92;96658.73;199329;293;188501;-57
2022/08/28 00:08:11;;;;;;;;;;;;;;;24.26;73.84;96656.55;199431;293;190716;-59
2022/08/28 00:09:13;;;;;;;;;;;;;;;24.27;73.80;96659.53;199358;293;188163;-58
2022/08/28 00:10:15;;;;;;;;;;;;;;;24.27;73.75;96660.92;199581;292;189227;-57
2022/08/28 00:11:16;;;;;;;;;;;;;;;24.27;73.72;96657.57;199667;293;188317;-56
2022/08/28 00:12:18;;;;;;;;;;;;;;;24.30;73.70;96660.20;199262;293;188159;-58
2022/08/28 00:13:20;;;;;;;;;;;;;;;24.30;73.65;96660.20;198967;293;188316;-54
2022/08/28 00:14:21;;;;;;;;;;;;;;;24.29;73.63;96657.20;199371;293;188216;-59
2022/08/28 00:15:22;;;;;;;;;;;;;;;24.28;73.60;96653.63;199456;293;190582;-60
2022/08/28 00:16:24;;;;;;;;;;;;;;;24.29;73.58;96657.20;199510;293;188568;-57
2022/08/28 00:17:26;;;;;;;;;;;;;;;24.28;73.56;96659.76;199586;293;188344;-56
2022/08/28 00:18:27;;;;;;;;;;;;;;;24.28;73.55;96663.91;199176;293;189432;-60
2022/08/28 00:19:28;;;;;;;;;;;;;;;24.28;73.52;96662.53;199141;293;190469;-58
2022/08/28 00:20:30;;;;;;;;;;;;;;;24.27;73.51;96660.92;199299;293;188497;-59
2022/08/28 00:21:32;;;;;;;;;;;;;;;24.27;73.50;96665.08;199390;293;188201;-56
2022/08/28 00:22:33;;;;;;;;;;;;;;;24.28;73.50;96673.60;199195;293;188330;-54
2022/08/28 00:23:34;;;;;;;;;;;;;;;24.26;73.49;96673.17;200130;291;189846;-56
2022/08/28 00:24:36;;;;;;;;;;;;;;;24.23;73.52;96669.93;200230;291;188032;-60
2022/08/28 00:25:37;;;;;;;;;;;;;;;24.26;73.52;96671.78;199044;292;189753;-59
2022/08/28 00:27:58;;;;;;;;;;;;;;;24.18;73.54;96666.06;199675;292;148806;-55
2022/08/28 00:28:59;;;;;;;;;;;;;;;24.17;73.56;96672.77;198987;293;188313;-56
2022/08/28 00:30:01;;;;;;;;;;;;;;;24.14;73.60;96673.50;198885;293;189479;-56
2022/08/28 00:31:03;;;;;;;;;;;;;;;24.16;73.61;96674.52;198941;293;189816;-56
2022/08/28 00:32:05;;;;;;;;;;;;;;;24.15;73.63;96672.91;199693;291;188531;-55
2022/08/28 00:33:06;;;;;;;;;;;;;;;24.12;73.61;96675.80;200009;291;189054;-55
2022/08/28 00:34:07;;;;;;;;;;;;;;;24.12;73.63;96673.02;199457;293;190908;-57
2022/08/28 00:35:11;;;;;;;;;;;;;;;24.12;73.63;96675.80;199299;293;189154;-58
2022/08/28 00:36:12;;;;;;;;;;;;;;;24.11;73.66;96673.39;199076;293;160811;-58
2022/08/28 00:37:13;;;;;;;;;;;;;;;24.09;73.65;96675.14;198694;293;188414;-56
2022/08/28 00:38:15;;;;;;;;;;;;;;;24.08;73.64;96683.22;199261;292;187977;-56
2022/08/28 00:39:16;;;;;;;;;;;;;;;24.09;73.65;96679.29;198617;294;190620;-57
2022/08/28 00:40:18;;;;;;;;;;;;;;;24.06;73.66;96670.91;199632;292;188951;-58
2022/08/28 00:41:19;;;;;;;;;;;;;;;24.06;73.68;96669.52;199978;292;188488;-57
2022/08/28 00:42:20;;;;;;;;;;;;;;;24.06;73.67;96675.06;199864;292;188344;-57
2022/08/28 00:43:22;;;;;;;;;;;;;;;24.04;73.67;96674.03;197746;295;190193;-57
2022/08/28 00:44:23;;;;;;;;;;;;;;;24.04;73.69;96673.23;199296;293;188383;-58
2022/08/28 00:45:25;;;;;;;;;;;;;;;24.00;73.72;96667.59;198340;294;187968;-57
2022/08/28 00:46:26;;;;;;;;;;;;;;;24.00;73.73;96667.59;199338;292;187160;-59
2022/08/28 00:47:29;;;;;;;;;;;;;;;24.00;73.75;96673.70;199499;292;189959;-57
2022/08/28 00:48:30;;;;;;;;;;;;;;;23.98;73.76;96669.92;199425;292;187380;-58
2022/08/28 00:49:31;;;;;;;;;;;;;;;23.96;73.79;96666.71;199021;293;189387;-56
2022/08/28 00:52:06;;;;;;;;;;;;;;;23.94;73.79;96669.04;198715;294;152378;-59
2022/08/28 00:53:07;;;;;;;;;;;;;;;23.91;73.81;96672.50;198791;292;157240;-57
2022/08/28 00:54:08;;;;;;;;;;;;;;;23.91;73.84;96664.20;198649;293;188112;-59
2022/08/28 00:55:10;;;;;;;;;;;;;;;23.90;73.86;96668.13;199385;293;189061;-56
2022/08/28 00:56:11;;;;;;;;;;;;;;;23.88;73.88;96670.45;199138;292;189155;-58
2022/08/28 00:57:13;;;;;;;;;;;;;;;23.87;73.87;96663.31;199155;293;188276;-59
2022/08/28 00:58:14;;;;;;;;;;;;;;;23.85;73.89;96662.29;199268;292;189243;-59
2022/08/28 00:59:16;;;;;;;;;;;;;;;23.85;73.92;96660.11;199386;292;188473;-58
2022/08/28 01:00:18;;;;;;;;;;;;;;;23.85;73.95;96667.83;199585;292;189593;-57
2022/08/28 01:01:19;;;;;;;;;;;;;;;23.83;73.96;96659.66;198607;294;189117;-58
2022/08/28 01:02:20;;;;;;;;;;;;;;;23.81;73.97;96663.34;198499;294;190793;-56
2022/08/28 01:03:22;;;;;;;;;;;;;;;23.81;73.98;96661.96;198635;294;186531;-58
2022/08/28 01:04:23;;;;;;;;;;;;;;;23.78;74.00;96653.80;198653;294;189210;-56
2022/08/28 01:05:24;;;;;;;;;;;;;;;23.77;74.07;96661.08;198700;294;190792;-57
2022/08/28 01:06:26;;;;;;;;;;;;;;;23.76;74.04;96661.66;198586;294;187078;-58
2022/08/28 01:07:27;;;;;;;;;;;;;;;23.76;74.10;96663.63;198662;294;189408;-58
2022/08/28 01:08:29;;;;;;;;;;;;;;;23.75;74.09;96655.10;198664;293;190035;-58
2022/08/28 01:09:30;;;;;;;;;;;;;;;23.73;74.11;96656.05;199506;293;189177;-57
2022/08/28 01:10:31;;;;;;;;;;;;;;;23.74;74.12;96661.80;199585;292;187737;-58
2022/08/28 01:11:33;;;;;;;;;;;;;;;23.74;74.12;96662.61;198730;294;188100;-58
2022/08/28 01:12:34;;;;;;;;;;;;;;;23.72;74.16;96659.98;198629;294;191265;-57
2022/08/28 01:13:35;;;;;;;;;;;;;;;23.70;74.16;96660.31;198719;294;189940;-59
2022/08/28 01:14:37;;;;;;;;;;;;;;;23.70;74.19;96662.27;198697;294;187133;-56
2022/08/28 01:15:39;;;;;;;;;;;;;;;23.69;74.21;96657.32;198695;294;190971;-58
2022/08/28 01:16:40;;;;;;;;;;;;;;;23.69;74.21;96665.63;198619;294;188087;-54
2022/08/28 01:48:14;;;;;;;;;;;;;;;23.61;74.82;96665.23;203082;262;63538;-51
2022/08/28 01:49:16;;;;;;;;;;;;;;;23.60;74.90;96665.78;197979;295;189022;-52
2022/08/28 01:50:17;;;;;;;;;;;;;;;23.57;74.89;96666.47;198014;294;190469;-48
2022/08/28 01:51:19;;;;;;;;;;;;;;;23.59;74.87;96671.09;198049;295;188746;-52
2022/08/28 01:52:20;;;;;;;;;;;;;;;23.59;74.85;96668.91;197700;295;187618;-49
2022/08/28 01:53:22;;;;;;;;;;;;;;;23.64;74.81;96675.58;198301;294;190750;-49
2022/08/28 01:54:24;;;;;;;;;;;;;;;23.64;74.77;96669.47;198456;294;188521;-49
2022/08/28 01:55:25;;;;;;;;;;;;;;;23.70;74.74;96685.79;197746;295;188620;-50
2022/08/28 01:56:26;;;;;;;;;;;;;;;23.71;74.66;96674.94;197825;295;189586;-53
2022/08/28 01:57:28;;;;;;;;;;;;;;;23.73;74.61;96674.83;198926;294;190605;-54
2022/08/28 01:58:29;;;;;;;;;;;;;;;23.76;74.52;96676.08;198984;294;188754;-50
2022/08/28 01:59:31;;;;;;;;;;;;;;;23.76;74.47;96677.46;198853;294;190254;-52
2022/08/28 02:00:32;;;;;;;;;;;;;;;23.80;74.45;96681.11;198700;294;189888;-53
2022/08/28 02:01:33;;;;;;;;;;;;;;;23.83;74.40;96682.61;198020;295;189950;-50
2022/08/28 02:02:35;;;;;;;;;;;;;;;23.81;74.34;96679.95;197910;295;189105;-50
2022/08/28 02:03:36;;;;;;;;;;;;;;;23.84;74.26;96676.48;197654;295;188950;-49
2022/08/28 02:04:37;;;;;;;;;;;;;;;23.85;74.26;96682.25;198607;294;190138;-50
2022/08/28 02:05:39;;;;;;;;;;;;;;;23.83;74.20;96674.89;198983;294;189732;-50
2022/08/28 02:06:40;;;;;;;;;;;;;;;23.85;74.14;96677.52;198855;294;188978;-48
2022/08/28 02:07:42;;;;;;;;;;;;;;;23.88;74.15;96684.29;198725;294;190414;-49
2022/08/28 02:08:43;;;;;;;;;;;;;;;23.88;74.12;96689.25;197798;295;188679;-53
2022/08/28 02:09:44;;;;;;;;;;;;;;;23.87;74.09;96682.69;198781;294;189582;-51
2022/08/28 02:10:46;;;;;;;;;;;;;;;23.86;74.04;96682.47;198875;294;189578;-53
2022/08/28 02:11:47;;;;;;;;;;;;;;;23.86;74.02;96679.12;198957;294;187924;-52
2022/08/28 02:12:48;;;;;;;;;;;;;;;23.88;73.99;96687.06;198867;294;191248;-53
2022/08/28 02:13:50;;;;;;;;;;;;;;;23.88;73.97;96691.22;198413;294;189644;-50
2022/08/28 02:14:51;;;;;;;;;;;;;;;23.87;73.97;96687.64;198446;294;188979;-50
2022/08/28 02:15:53;;;;;;;;;;;;;;;23.87;73.96;96693.76;198571;294;189730;-49
2022/08/28 02:16:55;;;;;;;;;;;;;;;23.86;73.96;96687.42;198809;294;188949;-51
2022/08/28 02:17:56;;;;;;;;;;;;;;;23.87;73.92;96695.14;198914;294;188998;-50
2022/08/28 02:18:57;;;;;;;;;;;;;;;23.84;73.89;96687.56;198925;294;190229;-51
2022/08/28 02:19:59;;;;;;;;;;;;;;;23.82;73.89;96683.77;198916;294;189681;-50
2022/08/28 02:21:00;;;;;;;;;;;;;;;23.85;73.88;96690.55;198669;294;188460;-48
2022/08/28 02:22:06;;;;;;;;;;;;;;;23.84;73.87;96691.71;198588;294;188528;-49
2022/08/28 02:23:05;;;;;;;;;;;;;;;23.83;73.88;96692.87;198429;294;157757;-50
2022/08/28 02:24:06;;;;;;;;;;;;;;;23.81;73.90;96689.64;198330;294;190583;-49
2022/08/28 02:25:07;;;;;;;;;;;;;;;23.82;73.90;96690.69;198156;294;188641;-52
2022/08/28 02:26:09;;;;;;;;;;;;;;;23.79;73.89;96687.81;198253;294;189511;-50
2022/08/28 02:27:10;;;;;;;;;;;;;;;23.80;73.91;96690.22;198387;294;189085;-48
2022/08/28 02:28:11;;;;;;;;;;;;;;;23.81;73.90;96686.87;198505;294;187667;-50
2022/08/28 02:29:13;;;;;;;;;;;;;;;23.77;73.90;96690.14;198515;294;190228;-53
2022/08/28 02:30:14;;;;;;;;;;;;;;;23.80;73.90;96690.80;198736;294;188928;-49
2022/08/28 02:31:15;;;;;;;;;;;;;;;23.78;73.90;96689.77;198752;294;189190;-48
2022/08/28 02:32:17;;;;;;;;;;;;;;;23.77;73.89;96692.91;198835;294;191121;-50
2022/08/28 02:33:18;;;;;;;;;;;;;;;23.77;73.89;96697.05;198646;294;191609;-50
2022/08/28 02:34:20;;;;;;;;;;;;;;;23.76;73.89;96686.56;198599;294;191127;-49
2022/08/28 02:35:21;;;;;;;;;;;;;;;23.75;73.89;96689.69;198574;294;189054;-51
2022/08/28 02:36:22;;;;;;;;;;;;;;;23.72;73.92;96687.64;198635;294;189593;-52
2022/08/28 02:37:23;;;;;;;;;;;;;;;23.72;73.94;96690.41;198307;294;189673;-50
2022/08/28 02:38:25;;;;;;;;;;;;;;;23.73;73.93;96692.02;198180;294;189067;-53
2022/08/28 02:39:27;;;;;;;;;;;;;;;23.70;73.95;96687.98;198100;294;189834;-52
2022/08/28 02:40:28;;;;;;;;;;;;;;;23.72;73.95;96690.41;198316;294;187602;-52
2022/08/28 02:41:30;;;;;;;;;;;;;;;23.67;73.97;96687.31;198466;294;187712;-50
2022/08/28 02:42:31;;;;;;;;;;;;;;;23.64;73.98;96680.53;198670;294;189636;-49
2022/08/28 02:43:32;;;;;;;;;;;;;;;23.65;73.99;96690.44;198708;294;188387;-52
2022/08/28 02:44:34;;;;;;;;;;;;;;;23.67;74.01;96688.70;198583;294;189416;-50
2022/08/28 02:45:35;;;;;;;;;;;;;;;23.65;74.03;96692.41;198170;294;190609;-51
2022/08/28 02:46:37;;;;;;;;;;;;;;;23.63;74.04;96696.11;198559;294;187251;-51
2022/08/28 02:47:38;;;;;;;;;;;;;;;23.64;74.07;96688.03;198421;294;189840;-52
2022/08/28 02:48:40;;;;;;;;;;;;;;;23.64;74.07;96693.56;198049;294;188613;-49
2022/08/28 02:49:41;;;;;;;;;;;;;;;23.61;74.08;96685.98;198048;294;189511;-49
2022/08/28 02:50:42;;;;;;;;;;;;;;;23.61;74.05;96689.55;197391;296;190138;-50
2022/08/28 02:51:44;;;;;;;;;;;;;;;23.59;74.08;96693.23;198517;294;188683;-51
2022/08/28 02:52:45;;;;;;;;;;;;;;;23.59;74.08;96697.38;198001;294;189573;-52
2022/08/28 02:53:46;;;;;;;;;;;;;;;23.58;74.07;96696.32;197915;294;188337;-48
2022/08/28 02:54:48;;;;;;;;;;;;;;;23.56;74.12;96691.15;198325;294;191041;-51
2022/08/28 02:55:49;;;;;;;;;;;;;;;23.56;74.14;96693.91;198069;294;188690;-53
2022/08/28 02:56:50;;;;;;;;;;;;;;;23.56;74.14;96693.91;197953;294;191114;-52
2022/08/28 02:57:53;;;;;;;;;;;;;;;23.54;74.11;96697.62;197823;294;189597;-49
2022/08/28 02:58:54;;;;;;;;;;;;;;;23.54;74.13;96692.09;197617;294;190351;-50
2022/08/28 02:59:56;;;;;;;;;;;;;;;23.55;74.15;96699.80;198324;294;188327;-50
2022/08/28 03:00:58;;;;;;;;;;;;;;;23.54;74.14;96692.67;198008;294;189798;-53
2022/08/28 03:02:00;;;;;;;;;;;;;;;23.53;74.17;96689.68;198200;294;189632;-48
2022/08/28 03:03:01;;;;;;;;;;;;;;;23.53;74.17;96693.25;197443;296;190223;-51
2022/08/28 03:04:04;;;;;;;;;;;;;;;23.52;74.20;96689.46;198451;294;191168;-50
2022/08/28 03:05:05;;;;;;;;;;;;;;;23.50;74.20;96691.20;198503;294;189652;-48
2022/08/28 03:06:07;;;;;;;;;;;;;;;23.47;74.18;96684.97;198525;294;190656;-49
2022/08/28 03:07:11;;;;;;;;;;;;;;;23.49;74.22;96690.95;197641;296;190274;-52
2022/08/28 03:08:11;;;;;;;;;;;;;;;23.51;74.23;96690.04;198208;294;156858;-50
2022/08/28 03:09:12;;;;;;;;;;;;;;;23.48;74.23;96689.92;197816;294;189976;-51
2022/08/28 03:10:15;;;;;;;;;;;;;;;23.47;74.26;96680.02;197981;294;187622;-51
2022/08/28 03:11:16;;;;;;;;;;;;;;;23.46;74.23;96684.75;197775;294;189709;-50
2022/08/28 03:12:22;;;;;;;;;;;;;;;23.46;74.23;96686.72;197753;294;189425;-50
2022/08/28 03:13:21;;;;;;;;;;;;;;;23.49;74.26;96681.27;197303;294;157866;-50
2022/08/28 03:14:23;;;;;;;;;;;;;;;23.47;74.27;96675.29;196867;296;188343;-49
2022/08/28 03:15:24;;;;;;;;;;;;;;;23.45;74.29;96683.73;198165;294;189083;-49
2022/08/28 03:16:26;;;;;;;;;;;;;;;23.46;74.26;96681.98;198333;294;189693;-48
2022/08/28 03:17:27;;;;;;;;;;;;;;;23.44;74.27;96679.35;198434;294;189941;-50
2022/08/28 03:18:29;;;;;;;;;;;;;;;23.42;74.27;96681.67;198494;294;189904;-50
2022/08/28 03:19:30;;;;;;;;;;;;;;;23.42;74.27;96685.24;198368;294;189682;-48
2022/08/28 03:20:31;;;;;;;;;;;;;;;23.41;74.29;96683.64;197930;294;188946;-51
2022/08/28 03:21:33;;;;;;;;;;;;;;;23.43;74.28;96685.47;198082;294;187617;-49
2022/08/28 03:23:53;;;;;;;;;;;;;;;23.39;74.32;96692.84;198283;294;150179;-51
2022/08/28 03:24:55;;;;;;;;;;;;;;;23.39;74.34;96695.61;197750;294;187808;-49
2022/08/28 03:25:56;;;;;;;;;;;;;;;23.37;74.34;96692.40;197796;294;189646;-49
2022/08/28 03:26:58;;;;;;;;;;;;;;;23.36;74.35;96694.94;198284;294;191591;-52
2022/08/28 03:28:00;;;;;;;;;;;;;;;23.38;74.39;96702.30;198273;294;189808;-49
2022/08/28 03:29:01;;;;;;;;;;;;;;;23.36;74.37;96693.56;197928;294;188764;-49
2022/08/28 03:30:02;;;;;;;;;;;;;;;23.36;74.36;96697.12;197976;294;189967;-50
2022/08/28 03:31:04;;;;;;;;;;;;;;;23.34;74.38;96697.27;197878;294;189685;-49
2022/08/28 03:32:06;;;;;;;;;;;;;;;23.35;74.41;96701.63;196961;296;189061;-52
2022/08/28 03:33:07;;;;;;;;;;;;;;;23.31;74.41;96696.59;196990;296;188824;-49
2022/08/28 03:34:09;;;;;;;;;;;;;;;23.34;74.42;96699.45;197354;295;186889;-50
2022/08/28 03:35:10;;;;;;;;;;;;;;;23.30;74.44;96694.98;197478;295;187643;-52
2022/08/28 03:36:12;;;;;;;;;;;;;;;23.32;74.44;96699.00;198240;294;186949;-49
2022/08/28 03:37:13;;;;;;;;;;;;;;;23.32;74.47;96700.96;197546;296;189635;-51
2022/08/28 03:38:15;;;;;;;;;;;;;;;23.31;74.46;96700.73;197684;296;191614;-50
2022/08/28 03:39:17;;;;;;;;;;;;;;;23.30;74.46;96702.70;198109;294;191720;-51
2022/08/28 03:40:19;;;;;;;;;;;;;;;23.28;74.46;96701.42;198410;294;190034;-53
2022/08/28 03:41:20;;;;;;;;;;;;;;;23.28;74.46;96700.84;198235;294;189189;-48
2022/08/28 03:42:21;;;;;;;;;;;;;;;23.31;74.49;96702.13;198086;294;188908;-49
2022/08/28 03:43:23;;;;;;;;;;;;;;;23.28;74.50;96695.89;197956;294;187476;-54
2022/08/28 03:44:24;;;;;;;;;;;;;;;23.29;74.49;96703.06;197827;294;189633;-50
2022/08/28 03:45:25;;;;;;;;;;;;;;;23.26;74.50;96696.83;198105;294;190425;-48
2022/08/28 03:46:27;;;;;;;;;;;;;;;23.28;74.52;96700.04;198190;294;187284;-50
2022/08/28 03:47:28;;;;;;;;;;;;;;;23.28;74.54;96700.04;198233;294;188978;-52
2022/08/28 03:48:30;;;;;;;;;;;;;;;23.28;74.53;96700.04;198052;294;188873;-50
2022/08/28 03:49:31;;;;;;;;;;;;;;;23.27;74.53;96699.81;198191;294;189096;-52
2022/08/28 03:50:32;;;;;;;;;;;;;;;23.27;74.53;96700.62;198427;294;187463;-53
2022/08/28 03:51:34;;;;;;;;;;;;;;;23.26;74.54;96700.40;198513;294;189288;-51
2022/08/28 03:52:35;;;;;;;;;;;;;;;23.26;74.56;96701.78;197902;294;189578;-49
2022/08/28 03:53:36;;;;;;;;;;;;;;;23.23;74.57;96700.31;197893;294;190279;-49
2022/08/28 03:54:38;;;;;;;;;;;;;;;23.25;74.59;96697.98;198065;294;186927;-50
2022/08/28 03:55:41;;;;;;;;;;;;;;;23.25;74.60;96702.13;198397;294;159756;-50
2022/08/28 03:56:42;;;;;;;;;;;;;;;23.25;74.62;96704.32;197578;296;189199;-49
2022/08/28 03:57:44;;;;;;;;;;;;;;;23.25;74.60;96706.28;197853;294;189491;-49
2022/08/28 03:58:45;;;;;;;;;;;;;;;23.22;74.63;96704.23;197562;294;190336;-51
2022/08/28 03:59:47;;;;;;;;;;;;;;;23.22;74.62;96700.89;198265;294;189761;-52
2022/08/28 04:00:49;;;;;;;;;;;;;;;23.23;74.61;96707.22;198189;294;187481;-52
2022/08/28 04:01:51;;;;;;;;;;;;;;;23.23;74.64;96703.08;197241;296;188800;-49
2022/08/28 04:02:52;;;;;;;;;;;;;;;23.21;74.65;96702.63;197374;296;189454;-52
2022/08/28 04:03:54;;;;;;;;;;;;;;;23.22;74.66;96703.66;197562;296;194606;-49
2022/08/28 04:04:56;;;;;;;;;;;;;;;23.24;74.63;96710.20;197652;296;190479;-51
2022/08/28 04:05:57;;;;;;;;;;;;;;;23.25;74.64;96714.58;197643;296;188856;-51
2022/08/28 04:06:58;;;;;;;;;;;;;;;23.22;74.63;96712.53;197547;296;187028;-49
2022/08/28 04:08:00;;;;;;;;;;;;;;;23.22;74.63;96711.14;197394;296;189543;-51
2022/08/28 04:09:01;;;;;;;;;;;;;;;23.21;74.65;96708.16;197871;294;189510;-50
2022/08/28 04:10:02;;;;;;;;;;;;;;;23.20;74.65;96717.61;197999;294;189619;-52
2022/08/28 04:11:04;;;;;;;;;;;;;;;23.21;74.66;96717.25;196955;296;187617;-50
2022/08/28 04:12:05;;;;;;;;;;;;;;;23.19;74.66;96713.23;196980;296;189516;-50
2022/08/28 04:13:07;;;;;;;;;;;;;;;23.18;74.68;96716.58;197031;296;191521;-51
2022/08/28 04:14:08;;;;;;;;;;;;;;;23.19;74.67;96717.39;197412;296;190040;-53
2022/08/28 04:15:09;;;;;;;;;;;;;;;23.22;74.65;96723.59;197360;296;188971;-51
2022/08/28 04:16:11;;;;;;;;;;;;;;;23.18;74.65;96714.37;197284;296;190299;-52
2022/08/28 04:17:12;;;;;;;;;;;;;;;23.17;74.66;96715.52;197165;296;189299;-52
2022/08/28 04:18:14;;;;;;;;;;;;;;;23.19;74.68;96716.80;197055;296;187525;-50
2022/08/28 04:19:15;;;;;;;;;;;;;;;23.15;74.68;96715.08;197101;296;189898;-51
2022/08/28 04:20:19;;;;;;;;;;;;;;;23.19;74.72;96718.77;198406;294;188101;-51
2022/08/28 04:21:20;;;;;;;;;;;;;;;23.17;74.70;96718.29;198348;294;158313;-50
2022/08/28 04:22:21;;;;;;;;;;;;;;;23.18;74.70;96718.52;198030;294;189515;-49
2022/08/28 04:23:23;;;;;;;;;;;;;;;23.17;74.70;96714.95;197920;294;191602;-53
2022/08/28 04:24:24;;;;;;;;;;;;;;;23.18;74.71;96718.52;197865;294;189025;-51
2022/08/28 04:25:25;;;;;;;;;;;;;;;23.15;74.73;96715.08;197750;294;187548;-49
2022/08/28 04:26:28;;;;;;;;;;;;;;;23.18;74.73;96721.28;198388;294;189588;-52
2022/08/28 04:27:29;;;;;;;;;;;;;;;23.17;74.72;96721.05;198286;294;188733;-51
2022/08/28 04:28:31;;;;;;;;;;;;;;;23.15;74.73;96720.61;198070;294;189740;-52
2022/08/28 04:29:32;;;;;;;;;;;;;;;23.17;74.74;96729.34;198060;294;189559;-50
2022/08/28 04:30:34;;;;;;;;;;;;;;;23.15;74.74;96718.64;197946;294;188720;-51
2022/08/28 04:31:35;;;;;;;;;;;;;;;23.12;74.74;96719.36;197789;294;189531;-48
2022/08/28 04:32:37;;;;;;;;;;;;;;;23.15;74.74;96724.17;197760;294;191066;-50
2022/08/28 04:33:38;;;;;;;;;;;;;;;23.13;74.75;96720.96;197890;294;189082;-52
2022/08/28 04:34:40;;;;;;;;;;;;;;;23.15;74.74;96721.98;198075;294;189553;-53
2022/08/28 04:35:41;;;;;;;;;;;;;;;23.13;74.75;96718.78;198078;294;188701;-49
2022/08/28 04:36:43;;;;;;;;;;;;;;;23.17;74.77;96727.97;197944;294;189442;-53
2022/08/28 04:37:44;;;;;;;;;;;;;;;23.15;74.77;96724.75;197834;294;189799;-49
2022/08/28 04:38:45;;;;;;;;;;;;;;;23.15;74.77;96723.37;197589;294;188861;-49
2022/08/28 04:39:47;;;;;;;;;;;;;;;23.13;74.77;96727.88;198002;294;187520;-51
2022/08/28 04:40:48;;;;;;;;;;;;;;;23.15;74.78;96733.05;197381;296;191002;-49
2022/08/28 04:41:49;;;;;;;;;;;;;;;23.16;74.78;96736.03;197958;294;188715;-52
2022/08/28 04:42:51;;;;;;;;;;;;;;;23.14;74.78;96733.63;198099;294;189477;-51
2022/08/28 04:43:52;;;;;;;;;;;;;;;23.13;74.79;96729.84;197942;294;189623;-53
2022/08/28 04:44:54;;;;;;;;;;;;;;;23.14;74.78;96733.63;197824;294;188195;-50
2022/08/28 04:45:55;;;;;;;;;;;;;;;23.13;74.76;96735.36;197766;294;189736;-50
2022/08/28 04:46:56;;;;;;;;;;;;;;;23.15;74.76;96734.42;197882;294;188881;-49
2022/08/28 04:47:58;;;;;;;;;;;;;;;23.14;74.76;96741.92;198369;294;189842;-51
2022/08/28 04:49:00;;;;;;;;;;;;;;;23.13;74.76;96737.55;198466;294;187459;-50
2022/08/28 04:50:01;;;;;;;;;;;;;;;23.11;74.74;96731.58;198727;294;189609;-52
2022/08/28 04:51:02;;;;;;;;;;;;;;;23.13;74.74;96743.66;198765;294;189559;-52
2022/08/28 04:52:04;;;;;;;;;;;;;;;23.12;74.75;96740.09;198961;294;186945;-53
2022/08/28 04:53:05;;;;;;;;;;;;;;;23.11;74.75;96734.91;198878;294;189601;-49
2022/08/28 04:54:06;;;;;;;;;;;;;;;23.13;74.74;96742.27;198787;294;188838;-50
2022/08/28 04:55:08;;;;;;;;;;;;;;;23.11;74.75;96739.06;198461;294;189584;-52
2022/08/28 04:56:09;;;;;;;;;;;;;;;23.09;74.75;96732.50;198635;294;190500;-50
2022/08/28 04:57:11;;;;;;;;;;;;;;;23.11;74.72;96739.06;198660;294;187203;-51
2022/08/28 04:58:12;;;;;;;;;;;;;;;23.12;74.75;96740.67;198191;294;190876;-51
2022/08/28 04:59:13;;;;;;;;;;;;;;;23.11;74.74;96739.06;198120;294;189492;-50
2022/08/28 05:00:15;;;;;;;;;;;;;;;23.09;74.72;96738.84;197438;295;187575;-49
2022/08/28 05:01:23;;;;;;;;;;;;;;;23.06;74.71;96736.75;197570;295;187626;-53
2022/08/28 05:02:20;;;;;;;;;;;;;;;23.11;74.73;96738.48;198376;294;159681;-50
2022/08/28 05:03:21;;;;;;;;;;;;;;;23.08;74.72;96743.34;197807;295;189475;-49
2022/08/28 05:04:22;;;;;;;;;;;;;;;23.07;74.73;96737.01;197647;295;187012;-52
2022/08/28 05:05:24;;;;;;;;;;;;;;;23.09;74.73;96742.18;198655;294;189524;-49
2022/08/28 05:06:25;;;;;;;;;;;;;;;23.08;74.72;96745.52;198945;294;189683;-49
2022/08/28 05:07:27;;;;;;;;;;;;;;;23.07;74.73;96745.30;198712;294;189200;-49
2022/08/28 05:08:28;;;;;;;;;;;;;;;23.09;74.73;96747.70;198629;294;189406;-52
2022/08/28 05:09:30;;;;;;;;;;;;;;;23.07;74.76;96749.45;198376;294;188190;-49
2022/08/28 05:10:34;;;;;;;;;;;;;;;23.07;74.75;96752.21;198395;294;189210;-50
2022/08/28 05:11:35;;;;;;;;;;;;;;;23.07;74.76;96752.21;198246;294;191036;-49
2022/08/28 05:12:36;;;;;;;;;;;;;;;23.08;74.73;96748.87;198205;294;188893;-51
2022/08/28 05:13:38;;;;;;;;;;;;;;;23.07;74.75;96745.30;198422;294;189825;-52
2022/08/28 05:14:39;;;;;;;;;;;;;;;23.04;74.74;96747.36;198721;294;189572;-49
2022/08/28 05:15:41;;;;;;;;;;;;;;;23.05;74.73;96747.58;198472;294;190282;-49
2022/08/28 05:16:42;;;;;;;;;;;;;;;23.05;74.74;96750.34;198733;294;189398;-50
2022/08/28 05:17:43;;;;;;;;;;;;;;;23.04;74.75;96750.70;198843;294;188541;-52
2022/08/28 05:18:45;;;;;;;;;;;;;;;23.03;74.74;96749.90;197674;295;189480;-49
2022/08/28 05:19:47;;;;;;;;;;;;;;;23.05;74.76;96752.31;197470;295;188947;-51
2022/08/28 05:20:48;;;;;;;;;;;;;;;23.04;74.73;96752.89;197496;295;190115;-51
2022/08/28 05:21:49;;;;;;;;;;;;;;;23.05;74.75;96758.64;198117;295;188571;-53
2022/08/28 05:22:51;;;;;;;;;;;;;;;23.04;74.75;96757.03;198732;294;188931;-53
2022/08/28 05:23:52;;;;;;;;;;;;;;;23.05;74.78;96755.88;198795;294;191306;-50
2022/08/28 05:24:53;;;;;;;;;;;;;;;23.03;74.75;96757.39;198869;294;197142;-53
2022/08/28 05:25:55;;;;;;;;;;;;;;;23.03;74.78;96762.34;198711;294;188680;-49
2022/08/28 05:26:56;;;;;;;;;;;;;;;23.03;74.78;96763.72;198669;294;189757;-50
2022/08/28 05:27:57;;;;;;;;;;;;;;;23.04;74.77;96768.09;198745;294;189416;-51
2022/08/28 05:28:59;;;;;;;;;;;;;;;23.02;74.76;96766.26;198423;294;188064;-52
2022/08/28 05:30:00;;;;;;;;;;;;;;;23.02;74.76;96769.02;198383;294;189367;-49
2022/08/28 05:31:01;;;;;;;;;;;;;;;23.03;74.78;96773.97;198271;294;188662;-53
2022/08/28 05:32:03;;;;;;;;;;;;;;;23.02;74.78;96768.22;198265;294;188058;-50
2022/08/28 05:33:04;;;;;;;;;;;;;;;23.02;74.76;96774.55;198138;294;188519;-49
2022/08/28 05:34:06;;;;;;;;;;;;;;;23.01;74.77;96778.47;198690;294;190041;-49
2022/08/28 05:35:07;;;;;;;;;;;;;;;22.99;74.76;96768.92;198543;294;189327;-51
2022/08/28 05:36:08;;;;;;;;;;;;;;;23.03;74.77;96776.73;198581;294;190056;-49
2022/08/28 05:37:10;;;;;;;;;;;;;;;22.98;74.76;96775.03;198751;294;188517;-51
2022/08/28 05:38:12;;;;;;;;;;;;;;;23.02;74.73;96773.75;198660;294;188707;-49
2022/08/28 05:39:13;;;;;;;;;;;;;;;23.00;74.73;96776.86;198851;294;189684;-52
2022/08/28 05:40:15;;;;;;;;;;;;;;;23.01;74.72;96777.09;198927;294;188847;-48
2022/08/28 05:41:16;;;;;;;;;;;;;;;22.98;74.73;96772.27;198508;294;189397;-49
2022/08/28 05:42:18;;;;;;;;;;;;;;;23.02;74.73;96784.23;198562;294;187628;-51
2022/08/28 05:43:19;;;;;;;;;;;;;;;22.99;74.74;96776.64;198478;294;190113;-50
2022/08/28 05:44:21;;;;;;;;;;;;;;;22.98;74.73;96779.75;198331;294;190868;-50
2022/08/28 05:45:22;;;;;;;;;;;;;;;22.99;74.72;96778.59;198000;295;190141;-49
2022/08/28 05:46:24;;;;;;;;;;;;;;;23.01;74.73;96782.62;198888;294;189469;-49
2022/08/28 05:47:25;;;;;;;;;;;;;;;23.00;74.70;96782.39;198671;294;189566;-50
2022/08/28 05:48:28;;;;;;;;;;;;;;;23.00;74.70;96784.35;198229;294;188877;-49
2022/08/28 05:49:29;;;;;;;;;;;;;;;22.99;74.71;96787.69;197177;296;188849;-51
2022/08/28 05:50:31;;;;;;;;;;;;;;;22.98;74.69;96783.33;196836;296;187638;-50